sensor_id;sensor_type;location;lat;lon;timestamp;pressure;altitude;pressure_sealevel;temperature;humidity
62710;BME280;48770;51.624;5.886;2024-01-15T00:02:14;100185.28;;;18.16;37.69
62710;BME280;48770;51.624;5.886;2024-01-15T00:04:40;100178.16;;;18.15;38.05
62710;BME280;48770;51.624;5.886;2024-01-15T00:07:08;100179.66;;;18.13;37.83
62710;BME280;48770;51.624;5.886;2024-01-15T00:09:34;100174.47;;;18.11;38.12
62710;BME280;48770;51.624;5.886;2024-01-15T00:12:00;100168.13;;;18.11;38.04
62710;BME280;48770;51.624;5.886;2024-01-15T00:14:26;100169.66;;;18.08;37.82
62710;BME280;48770;51.624;5.886;2024-01-15T00:16:51;100170.81;;;18.07;37.89
62710;BME280;48770;51.624;5.886;2024-01-15T00:19:17;100162.84;;;18.06;38.06
62710;BME280;48770;51.624;5.886;2024-01-15T00:21:44;100161.59;;;18.03;38.14
62710;BME280;48770;51.624;5.886;2024-01-15T00:24:09;100162.75;;;18.02;38.07
62710;BME280;48770;51.624;5.886;2024-01-15T00:26:34;100154.81;;;18.01;38.17
62710;BME280;48770;51.624;5.886;2024-01-15T00:29:00;100146.41;;;17.97;38.10
62710;BME280;48770;51.624;5.886;2024-01-15T00:31:25;100153.09;;;17.96;38.26
62710;BME280;48770;51.624;5.886;2024-01-15T00:33:51;100152.28;;;17.96;38.13
62710;BME280;48770;51.624;5.886;2024-01-15T00:36:16;100152.59;;;17.94;38.22
62710;BME280;48770;51.624;5.886;2024-01-15T00:38:42;100144.31;;;17.94;38.07
62710;BME280;48770;51.624;5.886;2024-01-15T00:41:08;100142.69;;;17.93;38.00
62710;BME280;48770;51.624;5.886;2024-01-15T00:43:34;100143.84;;;17.92;37.87
62710;BME280;48770;51.624;5.886;2024-01-15T00:46:02;100141.44;;;17.91;37.84
62710;BME280;48770;51.624;5.886;2024-01-15T00:48:27;100139.81;;;17.90;37.82
62710;BME280;48770;51.624;5.886;2024-01-15T00:50:53;100135.47;;;17.88;38.07
62710;BME280;48770;51.624;5.886;2024-01-15T00:53:19;100135.81;;;17.87;38.22
62710;BME280;48770;51.624;5.886;2024-01-15T00:55:47;100131.44;;;17.86;38.09
62710;BME280;48770;51.624;5.886;2024-01-15T00:58:12;100127.06;;;17.85;38.09
62710;BME280;48770;51.624;5.886;2024-01-15T01:00:38;100127.41;;;17.83;37.96
62710;BME280;48770;51.624;5.886;2024-01-15T01:03:03;100125.78;;;17.82;38.14
62710;BME280;48770;51.624;5.886;2024-01-15T01:05:28;100127.75;;;17.82;37.90
62710;BME280;48770;51.624;5.886;2024-01-15T01:07:54;100121.78;;;17.80;38.16
62710;BME280;48770;51.624;5.886;2024-01-15T01:10:19;100122.94;;;17.79;38.21
62710;BME280;48770;51.624;5.886;2024-01-15T01:12:44;100121.31;;;17.78;38.07
62710;BME280;48770;51.624;5.886;2024-01-15T01:15:10;100118.91;;;17.76;38.17
62710;BME280;48770;51.624;5.886;2024-01-15T01:17:35;100119.25;;;17.75;37.96
62710;BME280;48770;51.624;5.886;2024-01-15T01:20:01;100109.81;;;17.76;38.24
62710;BME280;48770;51.624;5.886;2024-01-15T01:22:29;100109.69;;;17.72;37.70
62710;BME280;48770;51.624;5.886;2024-01-15T01:24:54;100115.22;;;17.72;38.16
62710;BME280;48770;51.624;5.886;2024-01-15T01:27:20;100114.41;;;17.72;38.24
62710;BME280;48770;51.624;5.886;2024-01-15T01:29:45;100108.44;;;17.70;38.35
62710;BME280;48770;51.624;5.886;2024-01-15T01:32:10;100104.03;;;17.69;38.06
62710;BME280;48770;51.624;5.886;2024-01-15T01:34:40;100119.81;;;17.68;38.32
62710;BME280;48770;51.624;5.886;2024-01-15T01:37:09;100111.84;;;17.67;38.45
62710;BME280;48770;51.624;5.886;2024-01-15T01:39:35;100122.91;;;17.67;38.12
62710;BME280;48770;51.624;5.886;2024-01-15T01:42:03;100122.44;;;17.65;38.07
62710;BME280;48770;51.624;5.886;2024-01-15T01:44:28;100131.09;;;17.63;38.17
62710;BME280;48770;51.624;5.886;2024-01-15T01:46:54;100125.56;;;17.63;38.15
62710;BME280;48770;51.624;5.886;2024-01-15T01:49:19;100123.16;;;17.62;38.17
62710;BME280;48770;51.624;5.886;2024-01-15T01:51:45;100119.56;;;17.61;38.10
62710;BME280;48770;51.624;5.886;2024-01-15T01:54:11;100124.31;;;17.61;38.16
62710;BME280;48770;51.624;5.886;2024-01-15T01:56:39;100122.34;;;17.61;38.04
62710;BME280;48770;51.624;5.886;2024-01-15T01:59:06;100121.53;;;17.61;38.04
62710;BME280;48770;51.624;5.886;2024-01-15T02:01:33;100126.25;;;17.60;38.00
62710;BME280;48770;51.624;5.886;2024-01-15T02:03:58;100130.97;;;17.60;38.31
62710;BME280;48770;51.624;5.886;2024-01-15T02:06:24;100135.25;;;17.57;37.85
62710;BME280;48770;51.624;5.886;2024-01-15T02:08:50;100133.28;;;17.57;38.30
62710;BME280;48770;51.624;5.886;2024-01-15T02:11:15;100133.63;;;17.56;38.07
62710;BME280;48770;51.624;5.886;2024-01-15T02:13:41;100132.84;;;17.55;38.30
62710;BME280;48770;51.624;5.886;2024-01-15T02:16:06;100125.69;;;17.54;38.11
62710;BME280;48770;51.624;5.886;2024-01-15T02:18:42;100122.47;;;17.52;38.00
62710;BME280;48770;51.624;5.886;2024-01-15T02:21:08;100128.00;;;17.52;38.09
62710;BME280;48770;51.624;5.886;2024-01-15T02:23:33;100118.91;;;17.52;38.02
62710;BME280;48770;51.624;5.886;2024-01-15T02:25:59;100116.50;;;17.50;38.12
62710;BME280;48770;51.624;5.886;2024-01-15T02:28:24;100119.25;;;17.50;38.14
62710;BME280;48770;51.624;5.886;2024-01-15T02:30:49;100114.06;;;17.49;38.03
62710;BME280;48770;51.624;5.886;2024-01-15T02:33:15;100114.41;;;17.47;37.90
62710;BME280;48770;51.624;5.886;2024-01-15T02:35:40;100115.22;;;17.48;38.00
62710;BME280;48770;51.624;5.886;2024-01-15T02:38:06;100118.34;;;17.46;38.17
62710;BME280;48770;51.624;5.886;2024-01-15T02:40:32;100109.25;;;17.46;38.12
62710;BME280;48770;51.624;5.886;2024-01-15T02:42:58;100106.84;;;17.44;37.84
62710;BME280;48770;51.624;5.886;2024-01-15T02:45:23;100110.72;;;17.43;37.86
62710;BME280;48770;51.624;5.886;2024-01-15T02:47:49;100112.69;;;17.43;37.91
62710;BME280;48770;51.624;5.886;2024-01-15T02:50:14;100118.19;;;17.43;37.78
62710;BME280;48770;51.624;5.886;2024-01-15T02:52:41;100111.06;;;17.42;37.92
62710;BME280;48770;51.624;5.886;2024-01-15T02:55:06;100114.97;;;17.41;38.09
62710;BME280;48770;51.624;5.886;2024-01-15T02:57:32;100113.38;;;17.40;37.66
62710;BME280;48770;51.624;5.886;2024-01-15T02:59:57;100112.56;;;17.39;38.12
62710;BME280;48770;51.624;5.886;2024-01-15T03:02:23;100119.25;;;17.38;38.08
62710;BME280;48770;51.624;5.886;2024-01-15T03:04:48;100102.22;;;17.36;37.68
62710;BME280;48770;51.624;5.886;2024-01-15T03:07:13;100114.06;;;17.37;38.26
62710;BME280;48770;51.624;5.886;2024-01-15T03:09:39;100117.19;;;17.35;38.02
62710;BME280;48770;51.624;5.886;2024-01-15T03:12:04;100114.41;;;17.35;37.89
62710;BME280;48770;51.624;5.886;2024-01-15T03:14:30;100112.81;;;17.34;38.11
62710;BME280;48770;51.624;5.886;2024-01-15T03:16:55;100108.44;;;17.33;38.26
62710;BME280;48770;51.624;5.886;2024-01-15T03:19:21;100104.06;;;17.32;37.96
62710;BME280;48770;51.624;5.886;2024-01-15T03:21:46;100115.91;;;17.33;38.16
62710;BME280;48770;51.624;5.886;2024-01-15T03:24:11;100103.59;;;17.30;37.98
62710;BME280;48770;51.624;5.886;2024-01-15T03:26:37;100105.22;;;17.31;37.99
62710;BME280;48770;51.624;5.886;2024-01-15T03:29:02;100111.09;;;17.30;37.83
62710;BME280;48770;51.624;5.886;2024-01-15T03:31:27;100101.19;;;17.29;37.91
62710;BME280;48770;51.624;5.886;2024-01-15T03:33:53;100109.81;;;17.27;38.22
62710;BME280;48770;51.624;5.886;2024-01-15T03:36:18;100111.44;;;17.28;38.33
62710;BME280;48770;51.624;5.886;2024-01-15T03:38:44;100104.28;;;17.27;38.26
62710;BME280;48770;51.624;5.886;2024-01-15T03:41:09;100103.84;;;17.25;37.91
62710;BME280;48770;51.624;5.886;2024-01-15T03:43:34;100106.59;;;17.25;38.20
62710;BME280;48770;51.624;5.886;2024-01-15T03:46:00;100097.06;;;17.22;38.03
62710;BME280;48770;51.624;5.886;2024-01-15T03:48:25;100103.38;;;17.23;37.87
62710;BME280;48770;51.624;5.886;2024-01-15T03:50:50;100098.19;;;17.21;38.15
62710;BME280;48770;51.624;5.886;2024-01-15T03:53:16;100088.31;;;17.20;38.02
62710;BME280;48770;51.624;5.886;2024-01-15T03:55:42;100094.63;;;17.21;38.18
62710;BME280;48770;51.624;5.886;2024-01-15T03:58:07;100093.03;;;17.20;37.91
62710;BME280;48770;51.624;5.886;2024-01-15T04:00:32;100096.13;;;17.18;38.13
62710;BME280;48770;51.624;5.886;2024-01-15T04:02:58;100080.69;;;17.17;38.25
62710;BME280;48770;51.624;5.886;2024-01-15T04:05:23;100084.28;;;17.18;37.98
62710;BME280;48770;51.624;5.886;2024-01-15T04:07:49;100088.16;;;17.17;38.26
62710;BME280;48770;51.624;5.886;2024-01-15T04:10:14;100081.03;;;17.16;38.04
62710;BME280;48770;51.624;5.886;2024-01-15T04:12:39;100079.41;;;17.15;38.25
62710;BME280;48770;51.624;5.886;2024-01-15T04:15:05;100081.03;;;17.16;37.92
62710;BME280;48770;51.624;5.886;2024-01-15T04:17:31;100073.91;;;17.15;38.23
62710;BME280;48770;51.624;5.886;2024-01-15T04:19:56;100082.53;;;17.13;38.20
62710;BME280;48770;51.624;5.886;2024-01-15T04:22:21;100074.59;;;17.12;37.86
62710;BME280;48770;51.624;5.886;2024-01-15T04:24:47;100076.19;;;17.13;38.13
62710;BME280;48770;51.624;5.886;2024-01-15T04:27:12;100072.97;;;17.11;38.17
62710;BME280;48770;51.624;5.886;2024-01-15T04:29:38;100070.22;;;17.11;37.89
62710;BME280;48770;51.624;5.886;2024-01-15T04:32:04;100063.09;;;17.10;38.03
62710;BME280;48770;51.624;5.886;2024-01-15T04:34:29;100059.50;;;17.09;38.20
62710;BME280;48770;51.624;5.886;2024-01-15T04:36:55;100056.28;;;17.07;38.18
62710;BME280;48770;51.624;5.886;2024-01-15T04:39:20;100058.25;;;17.07;38.15
62710;BME280;48770;51.624;5.886;2024-01-15T04:41:45;100051.13;;;17.06;37.82
62710;BME280;48770;51.624;5.886;2024-01-15T04:44:11;100044.78;;;17.05;37.92
62710;BME280;48770;51.624;5.886;2024-01-15T04:46:36;100046.75;;;17.05;38.15
62710;BME280;48770;51.624;5.886;2024-01-15T04:49:01;100039.63;;;17.04;37.92
62710;BME280;48770;51.624;5.886;2024-01-15T04:51:27;100040.75;;;17.03;38.10
62710;BME280;48770;51.624;5.886;2024-01-15T04:53:52;100043.53;;;17.03;38.31
62710;BME280;48770;51.624;5.886;2024-01-15T04:56:18;100045.47;;;17.02;38.14
62710;BME280;48770;51.624;5.886;2024-01-15T04:58:43;100038.00;;;17.03;38.11
62710;BME280;48770;51.624;5.886;2024-01-15T05:01:08;100037.53;;;17.01;38.12
62710;BME280;48770;51.624;5.886;2024-01-15T05:03:35;100038.69;;;17.00;38.17
62710;BME280;48770;51.624;5.886;2024-01-15T05:06:00;100033.97;;;17.00;38.04
62710;BME280;48770;51.624;5.886;2024-01-15T05:08:25;100039.84;;;16.99;38.13
62710;BME280;48770;51.624;5.886;2024-01-15T05:10:51;100038.69;;;17.00;37.97
62710;BME280;48770;51.624;5.886;2024-01-15T05:13:16;100043.75;;;16.98;38.09
62710;BME280;48770;51.624;5.886;2024-01-15T05:15:41;100037.09;;;16.99;37.85
62710;BME280;48770;51.624;5.886;2024-01-15T05:18:07;100036.28;;;16.98;38.14
62710;BME280;48770;51.624;5.886;2024-01-15T05:20:32;100037.44;;;16.97;38.22
62710;BME280;48770;51.624;5.886;2024-01-15T05:22:57;100032.25;;;16.95;38.03
62710;BME280;48770;51.624;5.886;2024-01-15T05:25:23;100048.03;;;16.95;38.06
62710;BME280;48770;51.624;5.886;2024-01-15T05:27:48;100048.03;;;16.95;38.03
62710;BME280;48770;51.624;5.886;2024-01-15T05:30:14;100044.47;;;16.94;37.86
62710;BME280;48770;51.624;5.886;2024-01-15T05:32:39;100042.84;;;16.93;37.83
62710;BME280;48770;51.624;5.886;2024-01-15T05:35:05;100046.41;;;16.94;38.04
62710;BME280;48770;51.624;5.886;2024-01-15T05:37:30;100042.84;;;16.93;38.14
62710;BME280;48770;51.624;5.886;2024-01-15T05:39:56;100038.47;;;16.92;37.85
62710;BME280;48770;51.624;5.886;2024-01-15T05:42:21;100036.88;;;16.91;37.96
62710;BME280;48770;51.624;5.886;2024-01-15T05:44:46;100030.50;;;16.91;38.21
62710;BME280;48770;51.624;5.886;2024-01-15T05:47:11;100032.47;;;16.90;38.06
62710;BME280;48770;51.624;5.886;2024-01-15T05:49:37;100027.75;;;16.91;37.90
62710;BME280;48770;51.624;5.886;2024-01-15T05:52:03;100028.91;;;16.90;37.91
62710;BME280;48770;51.624;5.886;2024-01-15T05:54:29;100037.19;;;16.90;37.99
62710;BME280;48770;51.624;5.886;2024-01-15T05:56:54;100032.81;;;16.89;38.00
62710;BME280;48770;51.624;5.886;2024-01-15T05:59:19;100033.16;;;16.87;38.13
62710;BME280;48770;51.624;5.886;2024-01-15T06:01:44;100031.56;;;16.86;38.18
62710;BME280;48770;51.624;5.886;2024-01-15T06:04:10;100032.34;;;16.87;38.07
62710;BME280;48770;51.624;5.886;2024-01-15T06:06:35;100025.22;;;16.86;38.18
62710;BME280;48770;51.624;5.886;2024-01-15T06:09:01;100022.47;;;16.86;38.21
62710;BME280;48770;51.624;5.886;2024-01-15T06:11:31;100018.91;;;16.85;38.12
62710;BME280;48770;51.624;5.886;2024-01-15T06:13:56;100014.53;;;16.84;37.92
62710;BME280;48770;51.624;5.886;2024-01-15T06:16:23;100014.53;;;16.84;37.81
62710;BME280;48770;51.624;5.886;2024-01-15T06:18:49;100003.47;;;16.84;38.17
62710;BME280;48770;51.624;5.886;2024-01-15T06:21:15;100008.19;;;16.84;37.76
62710;BME280;48770;51.624;5.886;2024-01-15T06:23:40;100007.41;;;16.83;37.99
62710;BME280;48770;51.624;5.886;2024-01-15T06:26:05;100001.41;;;16.81;38.01
62710;BME280;48770;51.624;5.886;2024-01-15T06:28:31;100004.19;;;16.81;37.90
62710;BME280;48770;51.624;5.886;2024-01-15T06:30:57;100000.63;;;16.81;38.08
62710;BME280;48770;51.624;5.886;2024-01-15T06:33:23;100003.38;;;16.81;38.04
62710;BME280;48770;51.624;5.886;2024-01-15T06:35:48;100008.09;;;16.80;38.14
62710;BME280;48770;51.624;5.886;2024-01-15T06:38:14;100007.28;;;16.80;37.86
62710;BME280;48770;51.624;5.886;2024-01-15T06:40:40;100005.69;;;16.79;38.18
62710;BME280;48770;51.624;5.886;2024-01-15T06:43:13;100003.25;;;16.77;37.96
62710;BME280;48770;51.624;5.886;2024-01-15T06:45:38;100010.72;;;16.77;38.11
62710;BME280;48770;51.624;5.886;2024-01-15T06:48:04;100007.97;;;16.77;37.93
62710;BME280;48770;51.624;5.886;2024-01-15T06:50:29;100002.81;;;16.75;37.85
62710;BME280;48770;51.624;5.886;2024-01-15T06:52:54;100009.13;;;16.76;38.06
62710;BME280;48770;51.624;5.886;2024-01-15T06:55:20;100005.56;;;16.75;37.95
62710;BME280;48770;51.624;5.886;2024-01-15T06:57:45;100006.72;;;16.74;37.90
62710;BME280;48770;51.624;5.886;2024-01-15T07:00:11;100009.47;;;16.74;38.06
62710;BME280;48770;51.624;5.886;2024-01-15T07:02:36;100000.38;;;16.74;37.92
62710;BME280;48770;51.624;5.886;2024-01-15T07:05:02;100003.50;;;16.72;38.06
62710;BME280;48770;51.624;5.886;2024-01-15T07:07:30;99999.13;;;16.71;37.93
62710;BME280;48770;51.624;5.886;2024-01-15T07:09:55;100007.41;;;16.71;37.86
62710;BME280;48770;51.624;5.886;2024-01-15T07:12:21;100004.66;;;16.71;38.13
62710;BME280;48770;51.624;5.886;2024-01-15T07:14:46;100003.84;;;16.71;38.10
62710;BME280;48770;51.624;5.886;2024-01-15T07:17:11;100006.94;;;16.69;37.89
62710;BME280;48770;51.624;5.886;2024-01-15T07:19:37;100001.78;;;16.68;37.96
62710;BME280;48770;51.624;5.886;2024-01-15T07:22:02;100006.94;;;16.69;38.09
62710;BME280;48770;51.624;5.886;2024-01-15T07:24:28;100006.94;;;16.69;38.10
62710;BME280;48770;51.624;5.886;2024-01-15T07:26:53;99993.16;;;16.69;38.15
62710;BME280;48770;51.624;5.886;2024-01-15T07:29:18;99994.28;;;16.68;38.01
62710;BME280;48770;51.624;5.886;2024-01-15T07:31:50;99996.72;;;16.70;37.99
62710;BME280;48770;51.624;5.886;2024-01-15T07:34:16;99989.34;;;16.74;37.75
62710;BME280;48770;51.624;5.886;2024-01-15T07:36:43;99991.75;;;16.75;37.84
62710;BME280;48770;51.624;5.886;2024-01-15T07:39:09;99988.19;;;16.75;37.64
62710;BME280;48770;51.624;5.886;2024-01-15T07:41:34;99985.91;;;16.77;37.47
62710;BME280;48770;51.624;5.886;2024-01-15T07:43:59;99984.41;;;16.79;37.85
62710;BME280;48770;51.624;5.886;2024-01-15T07:46:25;100000.25;;;16.82;37.58
62710;BME280;48770;51.624;5.886;2024-01-15T07:48:50;100010.63;;;16.85;37.32
62710;BME280;48770;51.624;5.886;2024-01-15T07:51:24;100013.84;;;16.87;37.91
62710;BME280;48770;51.624;5.886;2024-01-15T07:53:49;100025.34;;;16.89;37.49
62710;BME280;48770;51.624;5.886;2024-01-15T07:56:15;100026.94;;;16.90;37.47
62710;BME280;48770;51.624;5.886;2024-01-15T07:58:41;100037.31;;;16.93;37.38
62710;BME280;48770;51.624;5.886;2024-01-15T08:01:06;100033.06;;;16.96;37.40
62710;BME280;48770;51.624;5.886;2024-01-15T08:03:31;100021.66;;;16.98;37.77
62710;BME280;48770;51.624;5.886;2024-01-15T08:05:58;100023.28;;;16.99;37.29
62710;BME280;48770;51.624;5.886;2024-01-15T08:08:24;100019.03;;;17.01;37.37
62710;BME280;48770;51.624;5.886;2024-01-15T08:10:51;100025.34;;;17.02;37.44
62710;BME280;48770;51.624;5.886;2024-01-15T08:13:17;100024.66;;;17.05;37.47
62710;BME280;48770;51.624;5.886;2024-01-15T08:15:42;100021.88;;;17.05;37.60
62710;BME280;48770;51.624;5.886;2024-01-15T08:18:08;100029.47;;;17.08;37.36
62710;BME280;48770;51.624;5.886;2024-01-15T08:20:34;100026.38;;;17.09;37.37
62710;BME280;48770;51.624;5.886;2024-01-15T08:22:59;100030.75;;;17.10;37.34
62710;BME280;48770;51.624;5.886;2024-01-15T08:25:24;100034.31;;;17.11;37.54
62710;BME280;48770;51.624;5.886;2024-01-15T08:27:51;100037.53;;;17.13;37.31
62710;BME280;48770;51.624;5.886;2024-01-15T08:30:16;100028.44;;;17.12;37.40
62710;BME280;48770;51.624;5.886;2024-01-15T08:32:44;100036.38;;;17.14;37.18
62710;BME280;48770;51.624;5.886;2024-01-15T08:35:09;100026.94;;;17.15;37.36
62710;BME280;48770;51.624;5.886;2024-01-15T08:37:35;100038.44;;;17.17;37.47
62710;BME280;48770;51.624;5.886;2024-01-15T08:40:00;100039.25;;;17.17;37.54
62710;BME280;48770;51.624;5.886;2024-01-15T08:42:25;100037.31;;;17.18;37.33
62710;BME280;48770;51.624;5.886;2024-01-15T08:44:51;100040.09;;;17.18;37.20
62710;BME280;48770;51.624;5.886;2024-01-15T08:47:16;100044.44;;;17.19;37.53
62710;BME280;48770;51.624;5.886;2024-01-15T08:49:42;100049.63;;;17.20;37.41
62710;BME280;48770;51.624;5.886;2024-01-15T08:52:09;100044.09;;;17.20;37.14
62710;BME280;48770;51.624;5.886;2024-01-15T08:54:35;100048.47;;;17.21;37.19
62710;BME280;48770;51.624;5.886;2024-01-15T08:57:00;100047.66;;;17.21;37.18
62710;BME280;48770;51.624;5.886;2024-01-15T08:59:26;100041.00;;;17.22;37.12
62710;BME280;48770;51.624;5.886;2024-01-15T09:01:52;100048.94;;;17.23;37.31
62710;BME280;48770;51.624;5.886;2024-01-15T09:04:18;100046.97;;;17.24;37.42
62710;BME280;48770;51.624;5.886;2024-01-15T09:06:45;100052.72;;;17.31;37.79
62710;BME280;48770;51.624;5.886;2024-01-15T09:09:12;100063.97;;;17.38;37.79
62710;BME280;48770;51.624;5.886;2024-01-15T09:11:38;100064.88;;;17.42;38.12
62710;BME280;48770;51.624;5.886;2024-01-15T09:14:03;100070.91;;;17.44;37.84
62710;BME280;48770;51.624;5.886;2024-01-15T09:16:29;100066.84;;;17.42;37.53
62710;BME280;48770;51.624;5.886;2024-01-15T09:18:54;100065.25;;;17.41;37.51
62710;BME280;48770;51.624;5.886;2024-01-15T09:21:22;100067.53;;;17.39;37.44
62710;BME280;48770;51.624;5.886;2024-01-15T09:23:47;100054.09;;;17.37;37.46
62710;BME280;48770;51.624;5.886;2024-01-15T09:26:13;100054.09;;;17.37;37.34
62710;BME280;48770;51.624;5.886;2024-01-15T09:28:38;100039.81;;;17.35;37.48
62710;BME280;48770;51.624;5.886;2024-01-15T09:31:03;100039.81;;;17.35;37.68
62710;BME280;48770;51.624;5.886;2024-01-15T09:33:29;100041.78;;;17.35;37.62
62710;BME280;48770;51.624;5.886;2024-01-15T09:35:54;100050.06;;;17.35;37.49
62710;BME280;48770;51.624;5.886;2024-01-15T09:38:20;100050.88;;;17.35;37.71
62710;BME280;48770;51.624;5.886;2024-01-15T09:40:46;100056.38;;;17.35;37.63
62710;BME280;48770;51.624;5.886;2024-01-15T09:43:12;100048.91;;;17.36;37.70
62710;BME280;48770;51.624;5.886;2024-01-15T09:45:39;100046.94;;;17.36;37.58
62710;BME280;48770;51.624;5.886;2024-01-15T09:48:05;100048.91;;;17.36;37.53
62710;BME280;48770;51.624;5.886;2024-01-15T09:50:31;100063.53;;;17.36;37.41
62710;BME280;48770;51.624;5.886;2024-01-15T09:52:56;100063.53;;;17.36;37.52
62710;BME280;48770;51.624;5.886;2024-01-15T09:55:22;100065.13;;;17.37;37.42
62710;BME280;48770;51.624;5.886;2024-01-15T09:57:49;100066.41;;;17.40;37.75
62710;BME280;48770;51.624;5.886;2024-01-15T10:00:17;100063.97;;;17.38;37.54
62710;BME280;48770;51.624;5.886;2024-01-15T10:02:43;100061.22;;;17.38;37.30
62710;BME280;48770;51.624;5.886;2024-01-15T10:05:09;100069.97;;;17.40;37.54
62710;BME280;48770;51.624;5.886;2024-01-15T10:07:36;100062.81;;;17.39;37.77
62710;BME280;48770;51.624;5.886;2024-01-15T10:10:02;100066.03;;;17.41;37.58
62710;BME280;48770;51.624;5.886;2024-01-15T10:12:28;100058.91;;;17.40;37.36
62710;BME280;48770;51.624;5.886;2024-01-15T10:14:54;100053.38;;;17.40;37.50
62710;BME280;48770;51.624;5.886;2024-01-15T10:17:21;100043.94;;;17.41;37.63
62710;BME280;48770;51.624;5.886;2024-01-15T10:19:46;100039.56;;;17.40;37.56
62710;BME280;48770;51.624;5.886;2024-01-15T10:22:13;100043.59;;;17.43;37.60
62710;BME280;48770;51.624;5.886;2024-01-15T10:24:43;100048.78;;;17.44;37.38
62710;BME280;48770;51.624;5.886;2024-01-15T10:27:09;100044.06;;;17.45;37.28
62710;BME280;48770;51.624;5.886;2024-01-15T10:29:35;100045.69;;;17.46;37.28
62710;BME280;48770;51.624;5.886;2024-01-15T10:32:02;100050.06;;;17.47;37.41
62710;BME280;48770;51.624;5.886;2024-01-15T10:34:27;100048.09;;;17.47;37.22
62710;BME280;48770;51.624;5.886;2024-01-15T10:36:53;100045.69;;;17.46;37.57
62710;BME280;48770;51.624;5.886;2024-01-15T10:39:24;100038.19;;;17.46;37.49
62710;BME280;48770;51.624;5.886;2024-01-15T10:41:50;100045.34;;;17.47;37.49
62710;BME280;48770;51.624;5.886;2024-01-15T10:44:19;100039.81;;;17.47;37.33
62710;BME280;48770;51.624;5.886;2024-01-15T10:46:45;100044.19;;;17.48;37.22
62710;BME280;48770;51.624;5.886;2024-01-15T10:49:11;100048.56;;;17.49;37.41
62710;BME280;48770;51.624;5.886;2024-01-15T10:51:37;100050.50;;;17.49;37.29
62710;BME280;48770;51.624;5.886;2024-01-15T10:54:03;100044.63;;;17.50;37.49
62710;BME280;48770;51.624;5.886;2024-01-15T10:56:31;100043.47;;;17.51;37.27
62710;BME280;48770;51.624;5.886;2024-01-15T10:58:59;100030.81;;;17.50;37.44
62710;BME280;48770;51.624;5.886;2024-01-15T11:01:24;100036.34;;;17.50;37.48
62710;BME280;48770;51.624;5.886;2024-01-15T11:03:50;100027.69;;;17.52;37.14
62710;BME280;48770;51.624;5.886;2024-01-15T11:06:19;100022.16;;;17.52;37.12
62710;BME280;48770;51.624;5.886;2024-01-15T11:08:48;100028.16;;;17.54;37.21
62710;BME280;48770;51.624;5.886;2024-01-15T11:11:15;100032.53;;;17.55;37.13
62710;BME280;48770;51.624;5.886;2024-01-15T11:13:41;100045.19;;;17.56;37.30
62710;BME280;48770;51.624;5.886;2024-01-15T11:16:10;100047.59;;;17.57;37.27
62710;BME280;48770;51.624;5.886;2024-01-15T11:18:41;100040.47;;;17.56;37.30
62710;BME280;48770;51.624;5.886;2024-01-15T11:29:04;100047.69;;;17.61;37.48
62710;BME280;48770;51.624;5.886;2024-01-15T11:34:15;100046.19;;;17.64;37.32
62710;BME280;48770;51.624;5.886;2024-01-15T11:41:57;100039.31;;;17.70;37.33
62710;BME280;48770;51.624;5.886;2024-01-15T11:44:22;100048.88;;;17.72;37.24
62710;BME280;48770;51.624;5.886;2024-01-15T11:49:30;100057.63;;;17.74;37.16
62710;BME280;48770;51.624;5.886;2024-01-15T11:52:02;100052.09;;;17.74;37.23
62710;BME280;48770;51.624;5.886;2024-01-15T11:54:30;100054.84;;;17.74;37.26
62710;BME280;48770;51.624;5.886;2024-01-15T11:57:00;100057.63;;;17.74;37.32
62710;BME280;48770;51.624;5.886;2024-01-15T11:59:29;100039.44;;;17.73;37.33
62710;BME280;48770;51.624;5.886;2024-01-15T12:01:54;100045.75;;;17.74;37.13
62710;BME280;48770;51.624;5.886;2024-01-15T12:04:20;100054.06;;;17.74;37.21
62710;BME280;48770;51.624;5.886;2024-01-15T12:06:46;100049.69;;;17.73;37.02
62710;BME280;48770;51.624;5.886;2024-01-15T12:09:11;100056.38;;;17.72;37.16
62710;BME280;48770;51.624;5.886;2024-01-15T12:11:38;100050.84;;;17.72;37.20
62710;BME280;48770;51.624;5.886;2024-01-15T12:14:09;100061.44;;;17.70;37.69
62710;BME280;48770;51.624;5.886;2024-01-15T12:16:34;100062.25;;;17.70;37.33
62710;BME280;48770;51.624;5.886;2024-01-15T12:18:59;100064.22;;;17.70;37.24
62710;BME280;48770;51.624;5.886;2024-01-15T12:21:26;100066.97;;;17.70;37.18
62710;BME280;48770;51.624;5.886;2024-01-15T12:23:52;100066.13;;;17.69;37.42
62710;BME280;48770;51.624;5.886;2024-01-15T12:26:17;100066.97;;;17.70;37.24
62710;BME280;48770;51.624;5.886;2024-01-15T12:28:43;100073.31;;;17.70;37.42
62710;BME280;48770;51.624;5.886;2024-01-15T12:31:08;100072.50;;;17.70;37.38
62710;BME280;48770;51.624;5.886;2024-01-15T12:33:33;100076.38;;;17.69;37.46
62710;BME280;48770;51.624;5.886;2024-01-15T12:35:59;100079.97;;;17.69;37.58
62710;BME280;48770;51.624;5.886;2024-01-15T12:38:24;100073.31;;;17.70;37.49
62710;BME280;48770;51.624;5.886;2024-01-15T12:40:50;100081.91;;;17.69;37.28
62710;BME280;48770;51.624;5.886;2024-01-15T12:43:17;100080.78;;;17.70;37.39
62710;BME280;48770;51.624;5.886;2024-01-15T12:45:42;100089.41;;;17.68;37.30
62710;BME280;48770;51.624;5.886;2024-01-15T12:48:08;100085.50;;;17.69;37.29
62710;BME280;48770;51.624;5.886;2024-01-15T12:50:34;100101.28;;;17.69;37.10
62710;BME280;48770;51.624;5.886;2024-01-15T12:53:01;100096.22;;;17.71;37.23
62710;BME280;48770;51.624;5.886;2024-01-15T12:55:26;100093.78;;;17.69;37.16
62710;BME280;48770;51.624;5.886;2024-01-15T12:57:52;100095.75;;;17.69;37.29
62710;BME280;48770;51.624;5.886;2024-01-15T13:00:20;100098.19;;;17.70;37.22
62710;BME280;48770;51.624;5.886;2024-01-15T13:02:45;100089.09;;;17.70;37.31